createdAt,value
2023-06-19T00:01:03.880Z,97939.16
2023-06-19T00:06:07.703Z,97927.69
2023-06-19T00:11:11.959Z,97915.78
2023-06-19T00:16:14.837Z,97923.28
2023-06-19T00:21:18.319Z,97921.00
2023-06-19T00:26:23.679Z,97923.88
2023-06-19T00:31:28.485Z,97925.78
2023-06-19T00:36:31.421Z,97927.66
2023-06-19T00:41:37.342Z,97941.78
2023-06-19T00:46:42.668Z,97927.84
2023-06-19T00:51:45.769Z,97936.97
2023-06-19T00:56:52.456Z,97943.00
2023-06-19T01:01:55.515Z,97946.09
2023-06-19T01:07:04.756Z,97946.88
2023-06-19T01:12:15.857Z,97940.81
2023-06-19T01:17:18.862Z,97963.22
2023-06-19T01:22:27.919Z,97957.97
2023-06-19T01:27:32.619Z,97979.72
2023-06-19T01:32:46.661Z,97968.97
2023-06-19T01:37:54.697Z,97962.28
2023-06-19T01:42:57.968Z,97959.28
2023-06-19T01:48:01.014Z,97958.91
2023-06-19T01:53:05.274Z,97952.69
2023-06-19T01:58:08.255Z,97969.34
2023-06-19T02:03:11.230Z,97961.59
2023-06-19T02:08:15.501Z,97952.41
2023-06-19T02:13:18.381Z,97954.69
2023-06-19T02:18:21.401Z,97963.84
2023-06-19T02:23:26.181Z,97966.53
2023-06-19T02:28:29.098Z,97972.13
2023-06-19T02:33:32.344Z,97978.41
2023-06-19T02:38:36.928Z,97970.47
2023-06-19T02:43:39.907Z,97965.47
2023-06-19T02:48:42.813Z,97980.47
2023-06-19T02:53:47.113Z,97984.16
2023-06-19T02:58:50.030Z,97990.59
2023-06-19T03:03:53.453Z,97997.00
2023-06-19T03:08:57.691Z,97999.50
2023-06-19T03:14:02.626Z,98007.16
2023-06-19T03:19:05.598Z,98014.97
2023-06-19T03:24:11.864Z,98016.97
2023-06-19T03:29:14.962Z,98019.53
2023-06-19T03:34:40.674Z,98028.09
2023-06-19T03:39:46.693Z,98033.03
2023-06-19T03:44:50.061Z,98034.22
2023-06-19T03:49:54.827Z,98046.28
2023-06-19T03:54:59.660Z,98045.63
2023-06-19T04:00:02.642Z,98040.88
2023-06-19T04:05:16.653Z,98042.34
2023-06-19T04:10:21.373Z,98051.28
2023-06-19T04:15:24.303Z,98065.88
2023-06-19T04:20:27.476Z,98076.38
2023-06-19T04:25:31.650Z,98086.19
2023-06-19T04:30:34.497Z,98093.31
2023-06-19T04:35:41.050Z,98099.31
2023-06-19T04:40:45.609Z,98113.38
2023-06-19T04:45:48.696Z,98098.66
2023-06-19T04:50:51.557Z,98087.88
2023-06-19T04:55:56.985Z,98088.13
2023-06-19T05:00:59.797Z,98082.31
2023-06-19T05:06:02.683Z,98084.84
2023-06-19T05:11:06.977Z,98088.44
2023-06-19T05:16:09.813Z,98081.19
2023-06-19T05:21:12.738Z,98098.72
2023-06-19T05:26:17.007Z,98104.34
2023-06-19T05:31:20.352Z,98112.09
2023-06-19T05:36:23.689Z,98115.22
2023-06-19T05:41:27.968Z,98118.38
2023-06-19T05:46:30.941Z,98124.41
2023-06-19T05:51:33.757Z,98139.69
2023-06-19T05:56:38.186Z,98153.91
2023-06-19T06:01:41.383Z,98163.91
2023-06-19T06:06:44.600Z,98169.59
2023-06-19T06:11:49.663Z,98169.13
2023-06-19T06:16:52.642Z,98168.22
2023-06-19T06:21:55.412Z,98160.78
2023-06-19T06:27:00.199Z,98159.69
2023-06-19T06:32:07.306Z,98154.19
2023-06-19T06:37:10.738Z,98165.69
2023-06-19T06:42:14.992Z,98159.63
2023-06-19T06:47:17.884Z,98174.25
2023-06-19T06:52:20.697Z,98170.06
2023-06-19T06:57:24.897Z,98173.47
2023-06-19T07:02:27.874Z,98174.94
2023-06-19T07:07:30.731Z,98174.72
2023-06-19T07:12:35.280Z,98180.56
2023-06-19T07:17:38.202Z,98193.47
2023-06-19T07:22:41.763Z,98195.13
2023-06-19T07:27:46.198Z,98199.28
2023-06-19T07:32:49.096Z,98196.69
2023-06-19T07:37:52.041Z,98201.25
2023-06-19T07:42:56.227Z,98211.53
2023-06-19T07:47:59.530Z,98204.91
2023-06-19T07:53:02.409Z,98204.41
2023-06-19T07:58:06.630Z,98205.94
2023-06-19T08:03:09.479Z,98205.91
2023-06-19T08:08:14.469Z,98213.53
2023-06-19T08:13:18.872Z,98215.84
2023-06-19T08:18:21.956Z,98215.34
2023-06-19T08:23:25.444Z,98225.25
2023-06-19T08:28:29.941Z,98226.94
2023-06-19T08:33:32.915Z,98229.03
2023-06-19T08:38:35.930Z,98229.25
2023-06-19T08:43:42.305Z,98217.97
2023-06-19T08:48:45.720Z,98230.59
2023-06-19T08:53:51.624Z,98228.97
2023-06-19T08:58:56.075Z,98226.06
2023-06-19T09:03:59.186Z,98221.38
2023-06-19T09:09:04.465Z,98224.91
2023-06-19T09:14:11.073Z,98218.59
2023-06-19T09:19:22.481Z,98221.34
2023-06-19T09:24:25.973Z,98221.78
2023-06-19T09:29:31.797Z,98238.97
2023-06-19T09:34:37.512Z,98225.75
2023-06-19T09:39:41.885Z,98223.94
2023-06-19T09:44:51.454Z,98217.75
2023-06-19T09:49:57.025Z,98226.13
2023-06-19T09:55:00.006Z,98219.31
2023-06-19T10:00:13.870Z,98220.88
2023-06-19T10:05:19.154Z,98228.13
2023-06-19T10:10:26.474Z,98223.16
2023-06-19T10:15:31.553Z,98224.06
2023-06-19T10:20:38.370Z,98221.59
2023-06-19T10:25:51.031Z,98222.25
2023-06-19T10:30:56.686Z,98220.91
2023-06-19T10:36:00.999Z,98227.97
2023-06-19T10:41:04.018Z,98221.41
2023-06-19T10:46:09.433Z,98223.19
2023-06-19T10:51:12.400Z,98217.66
2023-06-19T10:56:15.300Z,98215.94
2023-06-19T11:01:20.997Z,98206.00
2023-06-19T11:06:24.354Z,98206.53
2023-06-19T11:11:37.150Z,98206.38
2023-06-19T11:16:42.801Z,98201.94
2023-06-19T11:21:48.473Z,98204.13
2023-06-19T11:26:53.294Z,98189.44
2023-06-19T11:32:08.116Z,98193.00
2023-06-19T11:37:15.759Z,98191.28
2023-06-19T11:42:19.232Z,98188.19
2023-06-19T11:47:23.560Z,98191.06
2023-06-19T11:52:26.634Z,98179.31
2023-06-19T11:57:29.770Z,98175.59
2023-06-19T12:02:34.196Z,98186.13
2023-06-19T12:07:37.108Z,98187.31
2023-06-19T12:12:40.180Z,98171.44
2023-06-19T12:17:44.331Z,98171.50
2023-06-19T12:22:47.221Z,98170.63
2023-06-19T12:27:53.303Z,98175.06
2023-06-19T12:32:59.944Z,98182.78
2023-06-19T12:38:04.166Z,98177.03
2023-06-19T12:43:08.970Z,98189.72
2023-06-19T12:48:13.744Z,98191.28
2023-06-19T12:53:16.689Z,98183.25
2023-06-19T12:58:19.464Z,98184.75
2023-06-19T13:03:23.639Z,98183.88
2023-06-19T13:08:26.613Z,98183.41
2023-06-19T13:13:29.449Z,98176.69
2023-06-19T13:18:33.748Z,98174.97
2023-06-19T13:23:36.556Z,98169.16
2023-06-19T13:28:39.375Z,98165.22
2023-06-19T13:33:43.838Z,98166.53
2023-06-19T13:38:46.884Z,98158.28
2023-06-19T13:43:49.669Z,98153.00
2023-06-19T13:48:54.032Z,98159.88
2023-06-19T13:53:56.862Z,98155.56
2023-06-19T13:59:00.362Z,98132.34
2023-06-19T14:04:04.787Z,98139.53
2023-06-19T14:09:07.681Z,98132.34
2023-06-19T14:14:10.578Z,98132.91
2023-06-19T14:19:15.187Z,98135.53
2023-06-19T14:24:18.088Z,98138.22
2023-06-19T14:29:21.804Z,98132.78
2023-06-19T14:34:26.139Z,98133.22
2023-06-19T14:39:29.136Z,98134.81
2023-06-19T14:44:31.952Z,98129.78
2023-06-19T14:49:36.180Z,98134.16
2023-06-19T14:54:39.126Z,98131.22
2023-06-19T14:59:42.078Z,98121.97
2023-06-19T15:05:01.191Z,98122.47
2023-06-19T15:10:09.445Z,98130.78
2023-06-19T15:15:12.653Z,98139.25
2023-06-19T15:20:19.372Z,98135.38
2023-06-19T15:25:23.215Z,98145.00
2023-06-19T15:30:26.619Z,98154.69
2023-06-19T15:35:31.164Z,98143.69
2023-06-19T15:40:33.941Z,98142.41
2023-06-19T15:45:37.031Z,98125.13
2023-06-19T15:50:41.370Z,98119.50
2023-06-19T15:55:44.293Z,98119.34
2023-06-19T16:00:49.094Z,98124.25
2023-06-19T16:10:59.012Z,98117.69
2023-06-19T16:16:01.898Z,98111.97
2023-06-19T16:21:06.052Z,98114.34
2023-06-19T16:26:09.019Z,98109.47
2023-06-19T16:31:12.378Z,98115.13
2023-06-19T16:36:16.570Z,98124.13
2023-06-19T16:41:20.870Z,98126.59
2023-06-19T16:46:23.880Z,98118.53
2023-06-19T16:51:28.064Z,98125.16
2023-06-19T16:56:30.944Z,98112.28
2023-06-19T17:01:33.751Z,98115.72
2023-06-19T17:06:37.954Z,98106.44
2023-06-19T17:11:42.726Z,98110.41
2023-06-19T17:16:45.868Z,98103.16
2023-06-19T17:21:50.334Z,98109.00
2023-06-19T17:26:58.104Z,98092.75
2023-06-19T17:32:00.873Z,98098.19
2023-06-19T17:37:05.811Z,98089.72
2023-06-19T17:42:09.299Z,98100.88
2023-06-19T17:47:13.957Z,98100.69
2023-06-19T17:52:18.436Z,98098.56
2023-06-19T17:57:21.802Z,98101.09
2023-06-19T18:02:24.662Z,98098.00
2023-06-19T18:07:28.899Z,98094.97
2023-06-19T18:12:31.688Z,98107.19
2023-06-19T18:17:34.597Z,98113.34
2023-06-19T18:22:39.672Z,98098.38
2023-06-19T18:27:42.660Z,98101.66
2023-06-19T18:32:45.579Z,98103.56
2023-06-19T18:37:50.054Z,98100.13
2023-06-19T18:42:53.015Z,98102.59
2023-06-19T18:47:56.064Z,98092.63
2023-06-19T18:53:00.487Z,98091.19
2023-06-19T18:58:03.475Z,98091.00
2023-06-19T19:03:06.638Z,98092.88
2023-06-19T19:08:11.602Z,98083.66
2023-06-19T19:13:15.195Z,98081.13
2023-06-19T19:18:18.046Z,98087.78
2023-06-19T19:23:22.402Z,98090.41
2023-06-19T19:28:25.248Z,98093.28
2023-06-19T19:33:28.298Z,98093.59
2023-06-19T19:38:34.178Z,98099.88
2023-06-19T19:43:37.849Z,98108.97
2023-06-19T19:48:40.736Z,98110.66
2023-06-19T19:53:45.226Z,98113.59
2023-06-19T19:58:49.511Z,98113.31
2023-06-19T20:03:54.315Z,98130.81
2023-06-19T20:08:58.565Z,98128.19
2023-06-19T20:14:01.394Z,98139.00
2023-06-19T20:19:04.266Z,98134.88
2023-06-19T20:24:08.737Z,98145.19
2023-06-19T20:29:11.594Z,98131.84
2023-06-19T20:34:14.521Z,98151.66
2023-06-19T20:39:19.257Z,98142.03
2023-06-19T20:44:22.313Z,98131.22
2023-06-19T20:49:25.141Z,98120.81
2023-06-19T20:54:29.276Z,98128.06
2023-06-19T20:59:32.284Z,98120.41
2023-06-19T21:04:35.704Z,98119.91
2023-06-19T21:09:40.716Z,98117.28
2023-06-19T21:14:43.626Z,98124.06
2023-06-19T21:19:47.014Z,98115.75
2023-06-19T21:24:51.402Z,98118.72
2023-06-19T21:29:54.207Z,98113.75
2023-06-19T21:34:56.992Z,98110.44
2023-06-19T21:40:04.109Z,98120.31
2023-06-19T21:45:08.398Z,98105.69
2023-06-19T21:50:11.998Z,98109.06
2023-06-19T21:55:16.413Z,98107.03
2023-06-19T22:00:20.449Z,98101.22
2023-06-19T22:05:23.420Z,98099.53
2023-06-19T22:10:27.929Z,98091.81
2023-06-19T22:15:31.035Z,98099.75
2023-06-19T22:20:33.882Z,98097.06
2023-06-19T22:25:38.053Z,98091.88
2023-06-19T22:30:41.576Z,98095.44
2023-06-19T22:35:44.515Z,98090.19
2023-06-19T22:40:48.844Z,98090.81
2023-06-19T22:45:51.792Z,98087.72
2023-06-19T22:50:54.692Z,98084.38
2023-06-19T22:55:58.966Z,98083.72
2023-06-19T23:01:02.046Z,98076.81
2023-06-19T23:06:07.940Z,98079.97
2023-06-19T23:11:12.733Z,98084.16
2023-06-19T23:16:15.725Z,98083.09
2023-06-19T23:21:18.534Z,98092.50
2023-06-19T23:26:25.192Z,98089.97
2023-06-19T23:31:28.175Z,98098.13
2023-06-19T23:36:31.220Z,98100.22
2023-06-19T23:41:35.741Z,98100.84
2023-06-19T23:46:40.022Z,98105.00
2023-06-19T23:51:43.364Z,98105.22
2023-06-19T23:56:47.935Z,98108.72
